Time;durP1;ratioP1;P1;durP2;ratioP2;P2;SDS_P1;SDS_P2;PMS_P1;PMS_P2;Temp;Humidity;BMP_temperature;BMP_pressure;BME280_temperature;BME280_humidity;BME280_pressure;Samples;Min_cycle;Max_cycle;Signal;HPM_P1;HPM_P2
2023/04/15 00:00:36;;;;;;;6.90;3.63;;;;;;;;;;5085753;28;20075;-60
2023/04/15 00:03:04;;;;;;;8.07;4.38;;;;;;;;;;5086005;28;20052;-57
2023/04/15 00:05:31;;;;;;;8.13;4.57;;;;;;;;;;5054817;28;20136;-61
2023/04/15 00:08:00;;;;;;;11.30;6.22;;;;;;;;;;5054524;28;20495;-61
2023/04/15 00:10:27;;;;;;;7.22;4.72;;;;;;;;;;5075187;28;20052;-58
2023/04/15 00:12:53;;;;;;;6.90;4.90;;;;;;;;;;5065507;28;20049;-59
2023/04/15 00:15:19;;;;;;;8.27;4.38;;;;;;;;;;5068291;28;20107;-60
2023/04/15 00:17:46;;;;;;;5.85;4.70;;;;;;;;;;5073278;28;20057;-58
2023/04/15 00:20:12;;;;;;;8.45;5.15;;;;;;;;;;5064614;28;20147;-58
2023/04/15 00:22:38;;;;;;;7.63;4.65;;;;;;;;;;5063605;28;20106;-58
2023/04/15 00:25:05;;;;;;;9.25;4.28;;;;;;;;;;5065671;28;20131;-59
2023/04/15 00:27:31;;;;;;;8.75;4.63;;;;;;;;;;5064829;28;20045;-60
2023/04/15 00:29:57;;;;;;;7.70;4.65;;;;;;;;;;5065684;28;20053;-60
2023/04/15 00:32:24;;;;;;;12.32;4.78;;;;;;;;;;5065449;28;20063;-60
2023/04/15 00:34:51;;;;;;;8.70;4.55;;;;;;;;;;5063026;28;20048;-60
2023/04/15 00:37:17;;;;;;;12.00;4.88;;;;;;;;;;5065412;28;20512;-59
2023/04/15 00:39:44;;;;;;;6.05;4.47;;;;;;;;;;5070105;28;20044;-58
2023/04/15 00:42:12;;;;;;;7.53;4.50;;;;;;;;;;5085430;28;20145;-59
2023/04/15 00:44:38;;;;;;;8.98;4.47;;;;;;;;;;5073169;28;20479;-60
2023/04/15 00:47:05;;;;;;;7.80;4.93;;;;;;;;;;5065382;28;20557;-60
2023/04/15 00:49:32;;;;;;;8.45;5.35;;;;;;;;;;5063387;28;20052;-60
2023/04/15 00:51:58;;;;;;;8.98;4.75;;;;;;;;;;5069187;28;20057;-61
2023/04/15 00:54:24;;;;;;;6.55;4.40;;;;;;;;;;5066031;28;20132;-60
2023/04/15 00:56:50;;;;;;;8.63;4.80;;;;;;;;;;5064803;28;20060;-59
2023/04/15 00:59:17;;;;;;;12.30;5.95;;;;;;;;;;5065258;28;20168;-59
2023/04/15 01:01:44;;;;;;;7.38;4.75;;;;;;;;;;5067234;28;20079;-60
2023/04/15 01:04:11;;;;;;;10.98;4.60;;;;;;;;;;5067928;28;20053;-61
2023/04/15 01:06:37;;;;;;;11.60;4.97;;;;;;;;;;5064408;28;20103;-61
2023/04/15 01:09:04;;;;;;;10.55;5.22;;;;;;;;;;5064908;28;20052;-60
2023/04/15 01:11:32;;;;;;;5.32;4.25;;;;;;;;;;5068387;28;20082;-59
2023/04/15 01:13:58;;;;;;;9.30;4.60;;;;;;;;;;5078939;28;20132;-60
2023/04/15 01:16:26;;;;;;;6.90;4.63;;;;;;;;;;5065888;28;20053;-60
2023/04/15 01:18:53;;;;;;;7.20;4.82;;;;;;;;;;5063972;28;20056;-60
2023/04/15 01:21:19;;;;;;;7.15;4.53;;;;;;;;;;5063394;28;20107;-59
2023/04/15 01:23:46;;;;;;;8.27;4.70;;;;;;;;;;5064464;28;20057;-58
2023/04/15 01:26:13;;;;;;;7.00;4.55;;;;;;;;;;5074300;28;20128;-60
2023/04/15 01:28:39;;;;;;;7.47;4.28;;;;;;;;;;5064538;28;20057;-60
2023/04/15 01:31:06;;;;;;;10.07;4.80;;;;;;;;;;5064792;28;20511;-61
2023/04/15 01:33:33;;;;;;;6.60;4.82;;;;;;;;;;5064552;28;20209;-61
2023/04/15 01:36:00;;;;;;;9.68;5.03;;;;;;;;;;5064562;28;20064;-60
2023/04/15 01:38:27;;;;;;;5.45;4.60;;;;;;;;;;5064551;28;20061;-58
2023/04/15 01:40:53;;;;;;;7.22;4.47;;;;;;;;;;5064698;28;20505;-61
2023/04/15 01:43:19;;;;;;;12.18;5.32;;;;;;;;;;5064414;28;20056;-60
2023/04/15 01:45:46;;;;;;;8.63;5.32;;;;;;;;;;5057406;28;20519;-60
2023/04/15 01:48:12;;;;;;;8.40;4.45;;;;;;;;;;5054234;28;20053;-60
2023/04/15 01:50:39;;;;;;;7.38;4.28;;;;;;;;;;5076911;28;20510;-60
2023/04/15 01:53:05;;;;;;;7.45;4.80;;;;;;;;;;5074784;28;20142;-61
2023/04/15 01:55:31;;;;;;;10.18;4.88;;;;;;;;;;5067887;28;20565;-61
2023/04/15 01:57:58;;;;;;;7.68;4.80;;;;;;;;;;5068402;28;20514;-60
2023/04/15 02:00:24;;;;;;;8.20;4.53;;;;;;;;;;5060702;28;21010;-60
2023/04/15 02:02:50;;;;;;;7.35;4.28;;;;;;;;;;5063929;28;20081;-60
2023/04/15 02:05:17;;;;;;;6.20;4.25;;;;;;;;;;5070713;28;20139;-60
2023/04/15 02:07:44;;;;;;;6.50;4.57;;;;;;;;;;5066809;28;20368;-60
2023/04/15 02:10:12;;;;;;;5.95;4.53;;;;;;;;;;5066725;28;20139;-60
2023/04/15 02:12:38;;;;;;;9.60;4.55;;;;;;;;;;5066920;28;20045;-61
2023/04/15 02:15:05;;;;;;;5.53;4.93;;;;;;;;;;5065590;28;20482;-59
2023/04/15 02:17:35;;;;;;;6.60;4.10;;;;;;;;;;5086219;28;20144;-59
2023/04/15 02:20:03;;;;;;;6.40;4.57;;;;;;;;;;5071977;28;20056;-60
2023/04/15 02:22:30;;;;;;;7.60;4.35;;;;;;;;;;5067449;28;20057;-60
2023/04/15 02:24:56;;;;;;;7.93;4.75;;;;;;;;;;5067380;28;20057;-61
2023/04/15 02:27:22;;;;;;;11.32;5.00;;;;;;;;;;5067853;28;20064;-60
2023/04/15 02:29:52;;;;;;;7.28;5.03;;;;;;;;;;5066412;28;20063;-59
2023/04/15 02:32:19;;;;;;;6.18;4.45;;;;;;;;;;5067557;28;20153;-59
2023/04/15 02:34:45;;;;;;;7.93;5.10;;;;;;;;;;5067352;28;20092;-60
2023/04/15 02:37:12;;;;;;;6.53;5.15;;;;;;;;;;5068118;28;20103;-60
2023/04/15 02:39:38;;;;;;;6.28;4.57;;;;;;;;;;5070160;28;21001;-60
2023/04/15 02:42:07;;;;;;;7.28;5.10;;;;;;;;;;5067867;28;20172;-61
2023/04/15 02:44:35;;;;;;;6.75;4.65;;;;;;;;;;5066746;28;20053;-60
2023/04/15 02:47:02;;;;;;;8.27;4.70;;;;;;;;;;5066781;28;20526;-59
2023/04/15 02:49:29;;;;;;;5.88;4.53;;;;;;;;;;5066731;28;20060;-54
2023/04/15 02:51:57;;;;;;;8.88;5.15;;;;;;;;;;5066806;28;20060;-59
2023/04/15 02:54:23;;;;;;;6.95;5.35;;;;;;;;;;5078705;28;20499;-59
2023/04/15 02:56:49;;;;;;;12.93;5.45;;;;;;;;;;5066722;28;20057;-59
2023/04/15 02:59:16;;;;;;;6.60;5.15;;;;;;;;;;5063245;28;20045;-57
2023/04/15 03:01:42;;;;;;;7.38;5.13;;;;;;;;;;5055806;28;20056;-59
2023/04/15 03:04:09;;;;;;;6.85;4.72;;;;;;;;;;5066577;28;20056;-60
2023/04/15 03:06:36;;;;;;;10.52;5.93;;;;;;;;;;5066926;28;20568;-59
2023/04/15 03:09:02;;;;;;;9.02;5.20;;;;;;;;;;5066153;28;20157;-59
2023/04/15 03:11:28;;;;;;;7.18;5.03;;;;;;;;;;5065548;28;20060;-59
2023/04/15 03:13:55;;;;;;;6.85;5.22;;;;;;;;;;5079523;28;20075;-58
2023/04/15 03:16:21;;;;;;;8.13;5.35;;;;;;;;;;5073195;28;20499;-59
2023/04/15 03:18:47;;;;;;;8.13;5.50;;;;;;;;;;5066530;28;20053;-60
2023/04/15 03:21:14;;;;;;;10.07;5.55;;;;;;;;;;5083136;28;20702;-57
2023/04/15 03:23:40;;;;;;;7.20;4.75;;;;;;;;;;5083686;28;20056;-59
2023/04/15 03:26:07;;;;;;;9.93;6.47;;;;;;;;;;5081367;28;20515;-59
2023/04/15 03:28:33;;;;;;;7.38;5.68;;;;;;;;;;5068212;28;20049;-59
2023/04/15 03:30:59;;;;;;;7.72;5.50;;;;;;;;;;5065368;28;20056;-58
2023/04/15 03:33:26;;;;;;;8.10;5.82;;;;;;;;;;5066672;28;20057;-53
2023/04/15 03:35:52;;;;;;;9.35;5.35;;;;;;;;;;5066770;28;20063;-56
2023/04/15 03:38:18;;;;;;;9.07;5.65;;;;;;;;;;5066682;28;20045;-59
2023/04/15 03:40:45;;;;;;;7.25;5.82;;;;;;;;;;5074760;28;20056;-59
2023/04/15 03:43:12;;;;;;;12.50;6.35;;;;;;;;;;5066281;28;20056;-60
2023/04/15 03:45:38;;;;;;;8.15;6.03;;;;;;;;;;5066157;28;20528;-60
2023/04/15 03:48:05;;;;;;;7.57;5.68;;;;;;;;;;5075302;28;20737;-59
2023/04/15 03:50:42;;;;;;;8.20;5.30;;;;;;;;;;5066071;28;20068;-59
2023/04/15 03:53:09;;;;;;;8.52;5.35;;;;;;;;;;5071410;28;20060;-58
2023/04/15 03:55:35;;;;;;;8.00;6.10;;;;;;;;;;5065865;28;20148;-59
2023/04/15 03:58:02;;;;;;;8.80;5.93;;;;;;;;;;5070611;28;20048;-60
2023/04/15 04:00:28;;;;;;;6.50;5.75;;;;;;;;;;5076008;28;20092;-57
2023/04/15 04:02:55;;;;;;;11.30;5.97;;;;;;;;;;5066417;28;20141;-57
2023/04/15 04:05:22;;;;;;;6.82;5.85;;;;;;;;;;5065914;28;20061;-58
2023/04/15 04:07:48;;;;;;;12.30;6.15;;;;;;;;;;5063569;28;20057;-58
2023/04/15 04:10:14;;;;;;;7.82;5.30;;;;;;;;;;5065500;28;20069;-58
2023/04/15 04:12:41;;;;;;;10.25;6.00;;;;;;;;;;5065834;28;20063;-60
2023/04/15 04:15:07;;;;;;;10.52;6.55;;;;;;;;;;5065899;28;20063;-59
2023/04/15 04:17:33;;;;;;;11.90;5.88;;;;;;;;;;5065906;28;20607;-59
2023/04/15 04:20:00;;;;;;;8.60;5.63;;;;;;;;;;5070868;28;20052;-59
2023/04/15 04:22:26;;;;;;;9.13;6.47;;;;;;;;;;5069262;28;20499;-59
2023/04/15 04:24:52;;;;;;;9.50;5.97;;;;;;;;;;5064329;28;20057;-59
2023/04/15 04:27:19;;;;;;;7.70;5.60;;;;;;;;;;5065521;28;20507;-59
2023/04/15 04:29:46;;;;;;;7.07;5.05;;;;;;;;;;5064350;28;20467;-59
2023/04/15 04:32:13;;;;;;;11.10;6.13;;;;;;;;;;5064246;28;20057;-57
2023/04/15 04:34:39;;;;;;;9.48;6.25;;;;;;;;;;5065126;28;20119;-59
2023/04/15 04:37:06;;;;;;;11.35;6.63;;;;;;;;;;5066157;28;20507;-58
2023/04/15 04:39:32;;;;;;;8.10;5.43;;;;;;;;;;5062887;28;20057;-58
2023/04/15 04:41:58;;;;;;;8.68;6.43;;;;;;;;;;5063302;28;20083;-57
2023/04/15 04:44:25;;;;;;;10.27;5.90;;;;;;;;;;5070491;28;20419;-59
2023/04/15 04:46:52;;;;;;;8.95;5.97;;;;;;;;;;5064442;28;20763;-59
2023/04/15 04:49:18;;;;;;;11.38;6.28;;;;;;;;;;5064657;28;20171;-60
2023/04/15 04:51:45;;;;;;;13.13;6.68;;;;;;;;;;5065924;28;20051;-59
2023/04/15 04:54:12;;;;;;;10.52;6.25;;;;;;;;;;5067032;28;21090;-58
2023/04/15 04:56:38;;;;;;;11.73;6.78;;;;;;;;;;5066465;28;20499;-59
2023/04/15 04:59:05;;;;;;;11.30;7.38;;;;;;;;;;5065107;28;20068;-59
2023/04/15 05:01:32;;;;;;;10.70;6.97;;;;;;;;;;5063648;28;20083;-58
2023/04/15 05:03:58;;;;;;;11.35;7.05;;;;;;;;;;5082159;28;20045;-60
2023/04/15 05:06:26;;;;;;;12.02;6.40;;;;;;;;;;5085454;28;20056;-60
2023/04/15 05:08:52;;;;;;;11.75;6.68;;;;;;;;;;5076457;28;20057;-59
2023/04/15 05:11:19;;;;;;;12.48;6.78;;;;;;;;;;5082969;28;20053;-59
2023/04/15 05:13:45;;;;;;;11.02;6.78;;;;;;;;;;5085964;28;20553;-58
2023/04/15 05:16:11;;;;;;;11.63;6.72;;;;;;;;;;5075879;28;20049;-58
2023/04/15 05:18:38;;;;;;;12.80;7.68;;;;;;;;;;5078623;28;20048;-59
2023/04/15 05:21:05;;;;;;;10.73;6.18;;;;;;;;;;5078574;28;20061;-60
2023/04/15 05:23:31;;;;;;;9.35;6.82;;;;;;;;;;5088555;28;20090;-59
2023/04/15 05:25:57;;;;;;;11.55;6.93;;;;;;;;;;5074600;28;20068;-57
2023/04/15 05:28:24;;;;;;;8.82;6.88;;;;;;;;;;5072848;28;20061;-58
2023/04/15 05:30:50;;;;;;;9.18;6.55;;;;;;;;;;5085108;28;20090;-57
2023/04/15 05:33:17;;;;;;;9.80;6.85;;;;;;;;;;5076760;28;20088;-60
2023/04/15 05:35:44;;;;;;;11.52;7.15;;;;;;;;;;5070055;28;20083;-59
2023/04/15 05:38:10;;;;;;;11.32;6.60;;;;;;;;;;5087944;28;20519;-60
2023/04/15 05:40:37;;;;;;;10.80;6.25;;;;;;;;;;5088852;28;20060;-59
2023/04/15 05:43:03;;;;;;;11.68;6.13;;;;;;;;;;5083591;28;20056;-59
2023/04/15 05:45:29;;;;;;;10.07;7.07;;;;;;;;;;5084777;28;20052;-59
2023/04/15 05:47:56;;;;;;;11.32;6.97;;;;;;;;;;5068070;28;20544;-60
2023/04/15 05:50:22;;;;;;;9.57;6.18;;;;;;;;;;5068996;28;20056;-60
2023/04/15 05:52:48;;;;;;;11.27;6.93;;;;;;;;;;5074074;28;20084;-59
2023/04/15 05:55:15;;;;;;;9.95;6.47;;;;;;;;;;5089113;28;20052;-59
2023/04/15 05:57:41;;;;;;;11.35;6.78;;;;;;;;;;5087457;28;20045;-60
2023/04/15 06:00:08;;;;;;;8.75;6.30;;;;;;;;;;5084449;28;20143;-60
2023/04/15 06:02:35;;;;;;;10.18;6.70;;;;;;;;;;5071658;28;20056;-59
2023/04/15 06:05:02;;;;;;;9.90;6.78;;;;;;;;;;5075918;28;20801;-59
2023/04/15 06:07:29;;;;;;;10.75;6.65;;;;;;;;;;5066728;28;20114;-58
2023/04/15 06:09:55;;;;;;;9.05;6.47;;;;;;;;;;5067736;28;20053;-61
2023/04/15 06:12:22;;;;;;;8.43;6.50;;;;;;;;;;5065235;28;20088;-59
2023/04/15 06:14:48;;;;;;;8.88;7.00;;;;;;;;;;5067706;28;20456;-60
2023/04/15 06:17:17;;;;;;;9.07;7.20;;;;;;;;;;5072500;28;20539;-60
2023/04/15 06:19:43;;;;;;;10.85;7.40;;;;;;;;;;5087784;28;20048;-61
2023/04/15 06:22:10;;;;;;;10.95;6.72;;;;;;;;;;5087935;28;20155;-60
2023/04/15 06:24:36;;;;;;;10.40;7.18;;;;;;;;;;5084423;28;20063;-61
2023/04/15 06:27:03;;;;;;;10.55;7.00;;;;;;;;;;5088107;28;20129;-58
2023/04/15 06:29:29;;;;;;;10.43;7.57;;;;;;;;;;5086104;28;20102;-59
2023/04/15 06:31:56;;;;;;;13.48;7.63;;;;;;;;;;5083722;28;20052;-60
2023/04/15 06:34:22;;;;;;;11.57;7.47;;;;;;;;;;5067779;28;20049;-59
2023/04/15 06:36:49;;;;;;;9.88;7.90;;;;;;;;;;5067588;28;20049;-60
2023/04/15 06:39:15;;;;;;;14.18;8.27;;;;;;;;;;5071525;28;20434;-58
2023/04/15 06:41:41;;;;;;;10.25;7.82;;;;;;;;;;5087672;28;20048;-60
2023/04/15 06:44:08;;;;;;;11.93;8.05;;;;;;;;;;5083395;28;20053;-59
2023/04/15 06:46:34;;;;;;;10.00;7.63;;;;;;;;;;5085621;28;20057;-59
2023/04/15 06:49:02;;;;;;;11.40;7.68;;;;;;;;;;5076481;28;20057;-59
2023/04/15 06:51:29;;;;;;;13.98;8.10;;;;;;;;;;5066856;28;20059;-56
2023/04/15 06:53:56;;;;;;;12.90;8.63;;;;;;;;;;5066515;28;20053;-59
2023/04/15 06:56:23;;;;;;;13.02;8.80;;;;;;;;;;5087004;28;20143;-60
2023/04/15 06:58:49;;;;;;;10.98;8.75;;;;;;;;;;5087175;28;20528;-60
2023/04/15 07:01:16;;;;;;;12.30;7.65;;;;;;;;;;5087255;28;20496;-58
2023/04/15 07:03:42;;;;;;;11.18;8.07;;;;;;;;;;5087220;28;20048;-59
2023/04/15 07:06:09;;;;;;;14.13;7.82;;;;;;;;;;5073471;28;20103;-57
2023/04/15 07:08:35;;;;;;;11.45;8.25;;;;;;;;;;5078274;28;20049;-59
2023/04/15 07:11:01;;;;;;;12.05;8.32;;;;;;;;;;5085220;28;20060;-59
2023/04/15 07:13:29;;;;;;;10.35;7.30;;;;;;;;;;5073080;28;20057;-60
2023/04/15 07:15:56;;;;;;;12.77;8.25;;;;;;;;;;5087754;28;20084;-60
2023/04/15 07:18:22;;;;;;;11.95;8.15;;;;;;;;;;5083527;28;20506;-61
2023/04/15 07:20:48;;;;;;;15.68;9.13;;;;;;;;;;5086593;28;20696;-61
2023/04/15 07:23:15;;;;;;;11.82;7.40;;;;;;;;;;5080798;28;20482;-60
2023/04/15 07:25:41;;;;;;;11.98;7.80;;;;;;;;;;5068048;28;20521;-59
2023/04/15 07:28:08;;;;;;;12.45;8.35;;;;;;;;;;5086601;28;20583;-60
2023/04/15 07:30:34;;;;;;;11.70;7.53;;;;;;;;;;5077384;28;20136;-60
2023/04/15 07:33:00;;;;;;;11.27;7.45;;;;;;;;;;5066614;28;20053;-58
2023/04/15 07:35:28;;;;;;;11.77;8.27;;;;;;;;;;5066506;28;20478;-58
2023/04/15 07:37:55;;;;;;;9.35;6.72;;;;;;;;;;5068671;28;20058;-59
2023/04/15 07:40:21;;;;;;;12.90;7.40;;;;;;;;;;5062885;28;20057;-60
2023/04/15 07:42:48;;;;;;;9.40;7.28;;;;;;;;;;5081203;28;20056;-58
2023/04/15 07:45:15;;;;;;;8.63;6.57;;;;;;;;;;5087074;28;20580;-60
2023/04/15 07:47:41;;;;;;;12.50;7.78;;;;;;;;;;5079187;28;20052;-60
2023/04/15 07:50:09;;;;;;;11.30;7.65;;;;;;;;;;5078721;28;20052;-60
2023/04/15 07:52:38;;;;;;;11.68;7.75;;;;;;;;;;5069947;28;20139;-59
2023/04/15 07:55:06;;;;;;;12.05;7.30;;;;;;;;;;5083965;28;20091;-62
2023/04/15 07:57:33;;;;;;;10.10;7.30;;;;;;;;;;5077184;28;20084;-59
2023/04/15 07:59:59;;;;;;;8.63;6.88;;;;;;;;;;5071167;28;20451;-60
2023/04/15 08:02:25;;;;;;;10.77;7.15;;;;;;;;;;5068087;28;20053;-58
2023/04/15 08:04:52;;;;;;;12.55;7.28;;;;;;;;;;5054821;28;20064;-60
2023/04/15 08:07:20;;;;;;;7.30;6.05;;;;;;;;;;5065199;28;20060;-59
2023/04/15 08:09:47;;;;;;;7.90;6.43;;;;;;;;;;5057528;28;20160;-58
2023/04/15 08:12:13;;;;;;;14.18;6.38;;;;;;;;;;5073165;28;20062;-56
2023/04/15 08:14:40;;;;;;;8.52;5.75;;;;;;;;;;5073545;28;20048;-62
2023/04/15 08:17:06;;;;;;;7.35;5.30;;;;;;;;;;5072282;28;20057;-61
2023/04/15 08:19:33;;;;;;;7.78;5.15;;;;;;;;;;5065612;28;20063;-61
2023/04/15 08:21:59;;;;;;;7.85;4.65;;;;;;;;;;5065623;28;20045;-61
2023/04/15 08:24:26;;;;;;;8.05;4.72;;;;;;;;;;5050865;28;20057;-62
2023/04/15 08:26:52;;;;;;;6.22;4.55;;;;;;;;;;5045341;28;20058;-61
2023/04/15 08:29:18;;;;;;;7.10;4.20;;;;;;;;;;5061161;28;20053;-61
2023/04/15 08:31:46;;;;;;;6.05;4.75;;;;;;;;;;5057761;28;20049;-61
2023/04/15 08:34:13;;;;;;;11.68;5.40;;;;;;;;;;5050998;28;20128;-63
2023/04/15 08:36:39;;;;;;;7.45;5.88;;;;;;;;;;5052870;28;20505;-62
2023/04/15 08:39:05;;;;;;;6.88;5.55;;;;;;;;;;5059609;28;20592;-61
2023/04/15 08:41:46;;;;;;;8.48;5.78;;;;;;;;;;5065175;28;20084;-63
2023/04/15 08:44:13;;;;;;;7.50;5.65;;;;;;;;;;5065391;28;20578;-60
2023/04/15 08:46:41;;;;;;;7.68;5.50;;;;;;;;;;5065509;28;20503;-62
2023/04/15 08:49:09;;;;;;;7.25;4.80;;;;;;;;;;5064352;28;20045;-62
2023/04/15 08:51:35;;;;;;;7.28;4.88;;;;;;;;;;5065662;28;20057;-62
2023/04/15 08:54:02;;;;;;;7.20;4.35;;;;;;;;;;5058426;28;20058;-61
2023/04/15 08:56:30;;;;;;;10.05;4.95;;;;;;;;;;5053071;28;20083;-57
2023/04/15 08:58:57;;;;;;;6.30;4.35;;;;;;;;;;5066384;28;20110;-62
2023/04/15 09:01:24;;;;;;;7.18;5.00;;;;;;;;;;5047889;28;20061;-62
2023/04/15 09:03:53;;;;;;;7.03;4.35;;;;;;;;;;5052128;28;20053;-61
2023/04/15 09:06:20;;;;;;;6.97;4.97;;;;;;;;;;5056069;28;20144;-62
2023/04/15 09:08:46;;;;;;;8.52;5.05;;;;;;;;;;5060006;28;20426;-61
2023/04/15 09:11:13;;;;;;;8.65;4.70;;;;;;;;;;5089326;28;20049;-61
2023/04/15 09:13:39;;;;;;;9.30;4.32;;;;;;;;;;5078468;28;20502;-62
2023/04/15 09:16:05;;;;;;;5.20;3.45;;;;;;;;;;5068773;28;20056;-62
2023/04/15 09:18:32;;;;;;;6.70;3.97;;;;;;;;;;5068528;28;20049;-60
2023/04/15 09:21:07;;;;;;;7.07;2.80;;;;;;;;;;5068307;28;20091;-61
2023/04/15 09:23:34;;;;;;;3.53;3.00;;;;;;;;;;5068376;28;20517;-60
2023/04/15 09:26:01;;;;;;;5.82;3.67;;;;;;;;;;5068999;28;20059;-60
2023/04/15 09:28:28;;;;;;;4.90;3.20;;;;;;;;;;5071917;28;20060;-61
2023/04/15 09:30:56;;;;;;;6.00;3.90;;;;;;;;;;5071990;28;20472;-60
2023/04/15 09:33:23;;;;;;;6.18;4.22;;;;;;;;;;5077520;28;20110;-61
2023/04/15 09:35:59;;;;;;;6.53;4.45;;;;;;;;;;5060119;28;20053;-59
2023/04/15 09:38:26;;;;;;;6.15;3.92;;;;;;;;;;5048319;28;20435;-61
2023/04/15 09:40:53;;;;;;;7.00;3.85;;;;;;;;;;5054214;28;20135;-61
2023/04/15 09:43:19;;;;;;;6.07;4.53;;;;;;;;;;5064144;28;20124;-61
2023/04/15 09:45:47;;;;;;;7.43;4.40;;;;;;;;;;5049584;28;20546;-60
2023/04/15 09:48:19;;;;;;;7.82;4.55;;;;;;;;;;5055542;28;20052;-61
2023/04/15 09:50:47;;;;;;;6.43;4.43;;;;;;;;;;5053009;28;20567;-62
2023/04/15 09:53:18;;;;;;;6.60;4.68;;;;;;;;;;5067675;28;20479;-62
2023/04/15 09:55:45;;;;;;;8.05;4.97;;;;;;;;;;5050051;28;20045;-63
2023/04/15 09:58:18;;;;;;;6.63;4.10;;;;;;;;;;5056778;28;20053;-62
2023/04/15 10:00:46;;;;;;;5.05;4.15;;;;;;;;;;5051313;28;20132;-62
2023/04/15 10:03:14;;;;;;;8.50;4.32;;;;;;;;;;5046938;28;20050;-62
2023/04/15 10:05:41;;;;;;;5.20;3.38;;;;;;;;;;5049846;28;20054;-61
2023/04/15 10:08:08;;;;;;;5.05;3.65;;;;;;;;;;5070953;28;20049;-62
2023/04/15 10:10:34;;;;;;;7.72;3.72;;;;;;;;;;5047434;28;20549;-62
2023/04/15 10:13:01;;;;;;;6.30;3.45;;;;;;;;;;5047484;28;20136;-62
2023/04/15 10:15:28;;;;;;;4.65;3.08;;;;;;;;;;5047667;28;20053;-62
2023/04/15 10:17:56;;;;;;;3.78;2.90;;;;;;;;;;5052317;28;20052;-62
2023/04/15 10:20:22;;;;;;;4.63;2.58;;;;;;;;;;5054212;28;20065;-61
2023/04/15 10:22:50;;;;;;;4.95;3.55;;;;;;;;;;5066794;28;20068;-61
2023/04/15 10:25:17;;;;;;;6.65;3.55;;;;;;;;;;5050681;28;20538;-62
2023/04/15 10:27:44;;;;;;;6.03;3.83;;;;;;;;;;5057874;28;20053;-62
2023/04/15 10:30:11;;;;;;;3.97;3.15;;;;;;;;;;5066063;28;20063;-62
2023/04/15 10:32:37;;;;;;;5.57;3.15;;;;;;;;;;5058917;28;20057;-62
2023/04/15 10:35:05;;;;;;;3.08;2.28;;;;;;;;;;5054288;28;20056;-62
2023/04/15 10:37:33;;;;;;;4.55;2.92;;;;;;;;;;5050937;28;20053;-60
2023/04/15 10:39:59;;;;;;;4.10;2.72;;;;;;;;;;5047294;28;20103;-59
2023/04/15 10:42:32;;;;;;;3.92;2.83;;;;;;;;;;5060819;28;20427;-60
2023/04/15 10:44:59;;;;;;;5.65;2.78;;;;;;;;;;5068133;28;20509;-59
2023/04/15 10:47:25;;;;;;;3.60;2.40;;;;;;;;;;5070796;28;20045;-58
2023/04/15 10:49:56;;;;;;;4.25;2.28;;;;;;;;;;5055785;28;20133;-59
2023/04/15 10:52:24;;;;;;;2.72;2.10;;;;;;;;;;5046605;28;20498;-60
2023/04/15 10:55:01;;;;;;;3.83;2.58;;;;;;;;;;5045048;28;20057;-59
2023/04/15 10:57:33;;;;;;;3.15;2.30;;;;;;;;;;5044207;28;20053;-61
2023/04/15 11:00:12;;;;;;;4.20;2.60;;;;;;;;;;5046619;28;20060;-58
2023/04/15 11:02:46;;;;;;;2.65;2.05;;;;;;;;;;5042864;28;20049;-59
2023/04/15 11:05:13;;;;;;;5.00;2.10;;;;;;;;;;5045925;28;20053;-60
2023/04/15 11:07:40;;;;;;;2.35;2.00;;;;;;;;;;5041054;28;20049;-59
2023/04/15 11:10:12;;;;;;;3.53;2.10;;;;;;;;;;5056607;28;20166;-62
2023/04/15 11:12:38;;;;;;;11.30;3.15;;;;;;;;;;5078709;28;20048;-62
2023/04/15 11:15:23;;;;;;;2.78;2.58;;;;;;;;;;5077812;28;20506;-61
2023/04/15 11:17:50;;;;;;;4.30;2.70;;;;;;;;;;5072773;28;20528;-61
2023/04/15 11:20:17;;;;;;;2.75;2.42;;;;;;;;;;5067999;28;20096;-60
2023/04/15 11:22:50;;;;;;;2.67;2.25;;;;;;;;;;5075554;28;20052;-63
2023/04/15 11:25:23;;;;;;;4.20;1.88;;;;;;;;;;5066409;28;20507;-61
2023/04/15 11:27:51;;;;;;;4.13;2.22;;;;;;;;;;5058806;28;20132;-62
2023/04/15 11:30:20;;;;;;;6.00;2.60;;;;;;;;;;5071938;28;20056;-61
2023/04/15 11:32:53;;;;;;;5.70;2.63;;;;;;;;;;5060672;28;20057;-62
2023/04/15 11:35:20;;;;;;;8.88;2.63;;;;;;;;;;5051238;28;20405;-61
2023/04/15 11:37:48;;;;;;;4.32;2.67;;;;;;;;;;5062128;28;20053;-60
2023/04/15 11:40:16;;;;;;;4.78;2.95;;;;;;;;;;5074895;28;20551;-62
2023/04/15 11:42:46;;;;;;;2.55;2.15;;;;;;;;;;5084505;28;20570;-62
2023/04/15 11:45:15;;;;;;;29.35;4.20;;;;;;;;;;5046958;28;20059;-61
2023/04/15 11:47:41;;;;;;;14.68;2.78;;;;;;;;;;5061348;28;20056;-59
2023/04/15 11:50:21;;;;;;;3.03;2.13;;;;;;;;;;5065768;28;20049;-62
2023/04/15 11:52:53;;;;;;;4.25;2.10;;;;;;;;;;5061892;28;20516;-62
2023/04/15 11:55:20;;;;;;;6.25;2.30;;;;;;;;;;5051855;28;20059;-60
2023/04/15 11:57:46;;;;;;;5.65;2.55;;;;;;;;;;5049567;28;20065;-61
2023/04/15 12:00:13;;;;;;;2.97;2.20;;;;;;;;;;5059026;28;20474;-58
2023/04/15 12:02:39;;;;;;;3.00;1.65;;;;;;;;;;5048684;28;20049;-60
2023/04/15 12:05:06;;;;;;;6.50;2.20;;;;;;;;;;5061896;28;20171;-60
2023/04/15 12:07:32;;;;;;;2.05;1.55;;;;;;;;;;5057490;28;20495;-59
2023/04/15 12:09:58;;;;;;;2.15;1.70;;;;;;;;;;5050977;28;20053;-58
2023/04/15 12:12:28;;;;;;;4.15;1.60;;;;;;;;;;5045543;28;20507;-60
2023/04/15 12:14:55;;;;;;;4.68;1.50;;;;;;;;;;5047814;28;20593;-60
2023/04/15 12:17:22;;;;;;;2.75;1.70;;;;;;;;;;5052743;28;20087;-60
2023/04/15 12:19:54;;;;;;;2.08;1.52;;;;;;;;;;5044860;28;20600;-59
2023/04/15 12:22:21;;;;;;;2.08;1.63;;;;;;;;;;5044331;28;20061;-60
2023/04/15 12:24:53;;;;;;;3.00;2.28;;;;;;;;;;5045159;28;20053;-63
2023/04/15 12:27:20;;;;;;;4.53;1.85;;;;;;;;;;5045601;28;20053;-60
2023/04/15 12:29:46;;;;;;;2.13;1.80;;;;;;;;;;5045275;28;20374;-60
2023/04/15 12:32:16;;;;;;;2.10;1.55;;;;;;;;;;5052402;28;20053;-59
2023/04/15 12:34:48;;;;;;;2.47;1.90;;;;;;;;;;5055200;28;20061;-60
2023/04/15 12:37:14;;;;;;;8.18;2.55;;;;;;;;;;5049046;28;20049;-59
2023/04/15 12:39:42;;;;;;;1.83;1.70;;;;;;;;;;5041816;28;20132;-59
2023/04/15 12:42:09;;;;;;;3.08;1.83;;;;;;;;;;5049888;28;20060;-59
2023/04/15 12:44:35;;;;;;;2.63;1.45;;;;;;;;;;5042580;28;20061;-59
2023/04/15 12:47:02;;;;;;;3.00;1.67;;;;;;;;;;5059592;28;20089;-62
2023/04/15 12:49:29;;;;;;;3.22;1.63;;;;;;;;;;5045837;28;20590;-62
2023/04/15 12:51:56;;;;;;;2.17;1.45;;;;;;;;;;5042635;28;20124;-59
2023/04/15 12:54:23;;;;;;;4.03;1.75;;;;;;;;;;5049532;28;20585;-62
2023/04/15 12:56:50;;;;;;;5.07;1.75;;;;;;;;;;5057883;28;20056;-62
2023/04/15 12:59:17;;;;;;;4.15;1.83;;;;;;;;;;5059608;28;20483;-59
2023/04/15 13:01:44;;;;;;;3.85;2.13;;;;;;;;;;5053778;28;20081;-61
2023/04/15 13:04:10;;;;;;;3.40;1.77;;;;;;;;;;5051270;28;20409;-60
2023/04/15 13:06:37;;;;;;;2.97;1.63;;;;;;;;;;5048240;28;20166;-61
2023/04/15 13:09:03;;;;;;;1.70;1.60;;;;;;;;;;5049634;28;20144;-59
2023/04/15 13:11:32;;;;;;;3.85;1.70;;;;;;;;;;5073523;28;20052;-62
2023/04/15 13:13:59;;;;;;;4.18;2.38;;;;;;;;;;5064583;28;20053;-59
2023/04/15 13:16:26;;;;;;;3.20;1.75;;;;;;;;;;5060954;28;20512;-61
2023/04/15 13:18:52;;;;;;;3.20;1.80;;;;;;;;;;5071861;28;20057;-61
2023/04/15 13:21:18;;;;;;;2.75;1.88;;;;;;;;;;5062151;28;20349;-61
2023/04/15 13:23:45;;;;;;;3.15;1.73;;;;;;;;;;5061385;28;20114;-61
2023/04/15 13:26:11;;;;;;;5.32;1.80;;;;;;;;;;5076062;28;20053;-61
2023/04/15 13:28:38;;;;;;;2.40;1.75;;;;;;;;;;5061607;28;20079;-61
2023/04/15 13:31:04;;;;;;;4.15;1.67;;;;;;;;;;5071757;28;20522;-61
2023/04/15 13:33:31;;;;;;;2.38;1.75;;;;;;;;;;5063600;28;20056;-59
2023/04/15 13:35:57;;;;;;;4.72;1.65;;;;;;;;;;5061225;28;20053;-61
2023/04/15 13:38:24;;;;;;;4.20;1.75;;;;;;;;;;5057895;28;20102;-61
2023/04/15 13:40:51;;;;;;;3.38;1.40;;;;;;;;;;5051246;28;20523;-62
2023/04/15 13:43:17;;;;;;;4.78;2.05;;;;;;;;;;5056328;28;20045;-63
2023/04/15 13:45:45;;;;;;;1.58;1.33;;;;;;;;;;5055780;28;20060;-62
2023/04/15 13:48:11;;;;;;;2.97;1.50;;;;;;;;;;5066805;28;20231;-62
2023/04/15 13:50:38;;;;;;;2.33;1.30;;;;;;;;;;5077390;28;20187;-62
2023/04/15 13:53:06;;;;;;;3.28;1.67;;;;;;;;;;5071643;28;20120;-62
2023/04/15 13:55:34;;;;;;;1.63;1.20;;;;;;;;;;5076902;28;20041;-61
2023/04/15 13:58:00;;;;;;;2.20;1.10;;;;;;;;;;5054847;28;20486;-62
2023/04/15 14:00:27;;;;;;;2.90;1.10;;;;;;;;;;5062129;28;20049;-62
2023/04/15 14:02:53;;;;;;;2.13;1.30;;;;;;;;;;5071178;28;20056;-60
2023/04/15 14:05:20;;;;;;;2.08;1.35;;;;;;;;;;5064683;28;20057;-62
2023/04/15 14:07:46;;;;;;;3.38;1.48;;;;;;;;;;5050599;28;20104;-62
2023/04/15 14:10:13;;;;;;;2.92;1.30;;;;;;;;;;5057090;28;20045;-62
2023/04/15 14:12:39;;;;;;;4.35;1.35;;;;;;;;;;5057743;28;20063;-62
2023/04/15 14:15:06;;;;;;;1.50;0.82;;;;;;;;;;5067767;28;20055;-61
2023/04/15 14:17:33;;;;;;;4.32;1.42;;;;;;;;;;5053403;28;20053;-61
2023/04/15 14:19:59;;;;;;;1.65;1.38;;;;;;;;;;5059876;28;20049;-62
2023/04/15 14:22:26;;;;;;;5.50;1.65;;;;;;;;;;5059030;28;20640;-61
2023/04/15 14:24:54;;;;;;;6.18;2.00;;;;;;;;;;5061002;28;20087;-61
2023/04/15 14:27:20;;;;;;;3.88;1.58;;;;;;;;;;5068936;28;20048;-62
2023/04/15 14:29:47;;;;;;;4.05;1.50;;;;;;;;;;5084340;27;20057;-61
2023/04/15 14:32:13;;;;;;;4.13;1.60;;;;;;;;;;5065475;28;20049;-62
2023/04/15 14:34:42;;;;;;;2.80;1.63;;;;;;;;;;5061237;28;20049;-61
2023/04/15 14:37:08;;;;;;;4.22;1.85;;;;;;;;;;5065367;28;20053;-62
2023/04/15 14:39:35;;;;;;;6.22;1.60;;;;;;;;;;5058161;28;20053;-62